Time;durP1;ratioP1;P1;durP2;ratioP2;P2;SDS_P1;SDS_P2;PMS_P1;PMS_P2;Temp;Humidity;BMP_temperature;BMP_pressure;BME280_temperature;BME280_humidity;BME280_pressure;Samples;Min_cycle;Max_cycle;Signal;HPM_P1;HPM_P2
2023/04/14 00:00:57;;;;;;;;;;;5.10;99.90;;;;;;5030409;28;19925;-65
2023/04/14 00:03:29;;;;;;;;;;;5.10;99.90;;;;;;5042662;28;20012;-64
2023/04/14 00:05:56;;;;;;;;;;;5.10;99.90;;;;;;5044436;28;20413;-65
2023/04/14 00:08:28;;;;;;;;;;;5.00;99.90;;;;;;5029858;28;20384;-64
2023/04/14 00:10:55;;;;;;;;;;;5.00;99.90;;;;;;5032233;28;19929;-65
2023/04/14 00:13:26;;;;;;;;;;;5.00;99.90;;;;;;5050802;28;19924;-64
2023/04/14 00:15:58;;;;;;;;;;;5.00;99.90;;;;;;5051395;28;19947;-65
2023/04/14 00:18:25;;;;;;;;;;;5.00;99.90;;;;;;5020316;28;19990;-64
2023/04/14 00:20:57;;;;;;;;;;;5.00;99.90;;;;;;5047199;28;19921;-65
2023/04/14 00:23:28;;;;;;;;;;;5.00;99.90;;;;;;5039522;28;19979;-65
2023/04/14 00:26:00;;;;;;;;;;;5.00;99.90;;;;;;5032026;28;19927;-65
2023/04/14 00:28:32;;;;;;;;;;;5.00;99.90;;;;;;5024271;28;19921;-64
2023/04/14 00:31:05;;;;;;;;;;;5.00;99.90;;;;;;5006275;28;19925;-64
2023/04/14 00:33:36;;;;;;;;;;;5.10;99.90;;;;;;5001891;28;19927;-65
2023/04/14 00:36:09;;;;;;;;;;;5.10;99.90;;;;;;5030307;28;20019;-64
2023/04/14 00:38:41;;;;;;;;;;;5.10;99.90;;;;;;5030405;28;19925;-65
2023/04/14 00:41:13;;;;;;;;;;;5.10;99.90;;;;;;5016894;28;19921;-65
2023/04/14 00:43:40;;;;;;;;;;;5.10;99.90;;;;;;5032678;28;19928;-64
2023/04/14 00:46:13;;;;;;;;;;;5.20;99.90;;;;;;5016750;28;19920;-64
2023/04/14 00:48:45;;;;;;;;;;;5.20;99.90;;;;;;5041196;28;19974;-64
2023/04/14 00:51:17;;;;;;;;;;;5.20;99.90;;;;;;5032199;28;19948;-64
2023/04/14 00:53:50;;;;;;;;;;;5.20;99.90;;;;;;5016867;28;20371;-65
2023/04/14 00:56:23;;;;;;;;;;;5.20;99.90;;;;;;5030498;28;19925;-65
2023/04/14 00:58:55;;;;;;;;;;;5.20;99.90;;;;;;5023356;28;19920;-64
2023/04/14 01:01:27;;;;;;;;;;;5.20;99.90;;;;;;5013246;28;19928;-64
2023/04/14 01:03:59;;;;;;;;;;;5.20;99.90;;;;;;5036405;28;19921;-65
2023/04/14 01:06:31;;;;;;;;;;;5.20;99.90;;;;;;5001169;28;19971;-65
2023/04/14 01:09:03;;;;;;;;;;;5.20;99.90;;;;;;5037252;28;19921;-64
2023/04/14 01:11:47;;;;;;;;;;;5.20;99.90;;;;;;5015018;28;19931;-65
2023/04/14 01:14:18;;;;;;;;;;;5.20;99.90;;;;;;5014679;28;20460;-65
2023/04/14 01:16:55;;;;;;;;;;;5.20;99.90;;;;;;5030832;28;19920;-64
2023/04/14 01:19:45;;;;;;;;;;;5.20;99.90;;;;;;5016026;28;19974;-65
2023/04/14 01:22:21;;;;;;;;;;;5.30;99.90;;;;;;5032686;28;19935;-65
2023/04/14 01:25:12;;;;;;;;;;;5.30;99.90;;;;;;5032731;28;19986;-65
2023/04/14 01:27:54;;;;;;;;;;;5.20;99.90;;;;;;4995671;28;19924;-64
2023/04/14 01:30:47;;;;;;;;;;;5.20;99.90;;;;;;5047904;28;20023;-65
2023/04/14 01:33:17;;;;;;;;;;;5.20;99.90;;;;;;5015220;28;19921;-65
2023/04/14 01:35:55;;;;;;;;;;;5.20;99.90;;;;;;5023201;28;19932;-65
2023/04/14 01:38:27;;;;;;;;;;;5.20;99.90;;;;;;5024789;28;19968;-63
2023/04/14 01:41:05;;;;;;;;;;;5.20;99.90;;;;;;5012843;28;20377;-65
2023/04/14 01:43:41;;;;;;;;;;;5.20;99.90;;;;;;5025007;28;19921;-65
2023/04/14 01:46:14;;;;;;;;;;;5.10;99.90;;;;;;5007329;28;19943;-65
2023/04/14 01:48:47;;;;;;;;;;;5.10;99.90;;;;;;5014516;28;20114;-65
2023/04/14 01:51:20;;;;;;;;;;;5.10;99.90;;;;;;5036685;28;20363;-65
2023/04/14 01:53:49;;;;;;;;;;;5.20;99.90;;;;;;5037655;28;19928;-65
2023/04/14 01:56:21;;;;;;;;;;;5.20;99.90;;;;;;5033736;28;20370;-65
2023/04/14 01:58:54;;;;;;;;;;;5.20;99.90;;;;;;5034067;28;19921;-65
2023/04/14 02:01:21;;;;;;;;;;;5.20;99.90;;;;;;5034592;28;20324;-65
2023/04/14 02:03:56;;;;;;;;;;;5.10;99.90;;;;;;5035514;28;19964;-65
2023/04/14 02:06:23;;;;;;;;;;;5.10;99.90;;;;;;5050407;28;19928;-65
2023/04/14 02:08:59;;;;;;;;;;;5.10;99.90;;;;;;5037005;28;19920;-65
2023/04/14 02:11:31;;;;;;;;;;;5.10;99.90;;;;;;5036216;28;19928;-65
2023/04/14 02:14:04;;;;;;;;;;;5.10;99.90;;;;;;5035445;28;19974;-65
2023/04/14 02:16:36;;;;;;;;;;;5.00;99.90;;;;;;5034682;28;19978;-64
2023/04/14 02:19:04;;;;;;;;;;;5.00;99.90;;;;;;5034081;28;19921;-65
2023/04/14 02:21:37;;;;;;;;;;;5.00;99.90;;;;;;5033857;28;19928;-65
2023/04/14 02:24:09;;;;;;;;;;;5.00;99.90;;;;;;5032413;28;19928;-65
2023/04/14 02:26:46;;;;;;;;;;;4.90;99.90;;;;;;5022263;28;19925;-64
2023/04/14 02:29:20;;;;;;;;;;;4.90;99.90;;;;;;5019780;28;20007;-64
2023/04/14 02:31:55;;;;;;;;;;;4.90;99.90;;;;;;5032558;28;20323;-64
2023/04/14 02:34:24;;;;;;;;;;;4.90;99.90;;;;;;5048873;28;19928;-65
2023/04/14 02:36:59;;;;;;;;;;;4.90;99.90;;;;;;5045961;28;20397;-64
2023/04/14 02:39:36;;;;;;;;;;;4.80;99.90;;;;;;5032110;28;19921;-65
2023/04/14 02:42:12;;;;;;;;;;;4.80;99.90;;;;;;5044957;28;19990;-65
2023/04/14 02:44:48;;;;;;;;;;;4.80;99.90;;;;;;5032923;28;19927;-65
2023/04/14 02:47:22;;;;;;;;;;;4.80;99.90;;;;;;5034028;28;19924;-64
2023/04/14 02:49:58;;;;;;;;;;;4.80;99.90;;;;;;5046243;28;19983;-64
2023/04/14 02:52:31;;;;;;;;;;;4.80;99.90;;;;;;5045814;28;20296;-65
2023/04/14 02:55:05;;;;;;;;;;;4.80;99.90;;;;;;5015732;28;19921;-65
2023/04/14 02:57:37;;;;;;;;;;;4.90;99.90;;;;;;5029489;28;20357;-64
2023/04/14 03:00:04;;;;;;;;;;;4.90;99.90;;;;;;5017049;28;19928;-64
2023/04/14 03:02:42;;;;;;;;;;;4.90;99.90;;;;;;5019125;28;20351;-65
2023/04/14 03:05:09;;;;;;;;;;;4.90;99.90;;;;;;5022570;28;19925;-64
2023/04/14 03:07:50;;;;;;;;;;;4.90;99.90;;;;;;5026286;28;20462;-64
2023/04/14 03:10:22;;;;;;;;;;;4.90;99.90;;;;;;5027146;28;19964;-65
2023/04/14 03:12:57;;;;;;;;;;;4.90;99.90;;;;;;5015327;28;19924;-64
2023/04/14 03:15:30;;;;;;;;;;;4.90;99.90;;;;;;4999631;28;20392;-64
2023/04/14 03:18:03;;;;;;;;;;;4.90;99.90;;;;;;5027467;28;19963;-64
2023/04/14 03:20:30;;;;;;;;;;;5.00;99.90;;;;;;5015869;28;19921;-65
2023/04/14 03:23:00;;;;;;;;;;;5.00;99.90;;;;;;5026733;28;20048;-64
2023/04/14 03:25:39;;;;;;;;;;;5.00;99.90;;;;;;5017105;28;19925;-64
2023/04/14 03:28:18;;;;;;;;;;;5.00;99.90;;;;;;5031021;28;19921;-65
2023/04/14 03:30:50;;;;;;;;;;;5.00;99.90;;;;;;5032939;28;20036;-64
2023/04/14 03:33:27;;;;;;;;;;;5.00;99.90;;;;;;5032300;28;19920;-64
2023/04/14 03:35:56;;;;;;;;;;;5.00;99.90;;;;;;5031843;28;19925;-64
2023/04/14 03:38:26;;;;;;;;;;;5.10;99.90;;;;;;5016693;28;19960;-64
2023/04/14 03:41:02;;;;;;;;;;;5.00;99.90;;;;;;5026869;28;19979;-64
2023/04/14 03:43:34;;;;;;;;;;;5.00;99.90;;;;;;5016739;28;20655;-65
2023/04/14 03:46:10;;;;;;;;;;;4.90;99.90;;;;;;5033040;28;20320;-64
2023/04/14 03:48:43;;;;;;;;;;;4.90;99.90;;;;;;5017693;28;20490;-64
2023/04/14 03:51:15;;;;;;;;;;;4.90;99.90;;;;;;5044481;28;19921;-64
2023/04/14 03:53:48;;;;;;;;;;;4.80;99.90;;;;;;5043794;28;19925;-65
2023/04/14 03:56:20;;;;;;;;;;;4.80;99.90;;;;;;5033084;28;20297;-65
2023/04/14 03:58:53;;;;;;;;;;;4.80;99.90;;;;;;5028589;28;19925;-64
2023/04/14 04:01:26;;;;;;;;;;;4.80;99.90;;;;;;5044393;28;19921;-64
2023/04/14 04:04:00;;;;;;;;;;;4.80;99.90;;;;;;5030083;28;19921;-64
2023/04/14 04:06:32;;;;;;;;;;;4.80;99.90;;;;;;5035333;28;20393;-64
2023/04/14 04:09:00;;;;;;;;;;;4.80;99.90;;;;;;5032288;28;19930;-65
2023/04/14 04:11:33;;;;;;;;;;;4.80;99.90;;;;;;5032093;28;19920;-64
2023/04/14 04:14:05;;;;;;;;;;;4.80;99.90;;;;;;5044729;28;19920;-64
2023/04/14 04:16:37;;;;;;;;;;;4.80;99.90;;;;;;5032431;28;19983;-64
2023/04/14 04:19:12;;;;;;;;;;;4.80;99.90;;;;;;5039464;28;19944;-64
2023/04/14 04:21:45;;;;;;;;;;;4.80;99.90;;;;;;5032205;28;20011;-64
2023/04/14 04:24:13;;;;;;;;;;;4.80;99.90;;;;;;5031660;28;19928;-64
2023/04/14 04:26:45;;;;;;;;;;;4.80;99.90;;;;;;5030311;28;19920;-64
2023/04/14 04:29:12;;;;;;;;;;;4.80;99.90;;;;;;5030846;28;19921;-64
2023/04/14 04:31:44;;;;;;;;;;;4.80;99.90;;;;;;5016565;28;19921;-64
2023/04/14 04:34:12;;;;;;;;;;;4.80;99.90;;;;;;5031713;28;19920;-64
2023/04/14 04:36:39;;;;;;;;;;;4.90;99.90;;;;;;5032149;28;19971;-64
2023/04/14 04:39:10;;;;;;;;;;;4.80;99.90;;;;;;5031798;28;19928;-64
2023/04/14 04:41:42;;;;;;;;;;;4.90;99.90;;;;;;5014664;28;19928;-64
2023/04/14 04:44:14;;;;;;;;;;;4.90;99.90;;;;;;5021103;28;19925;-64
2023/04/14 04:46:53;;;;;;;;;;;4.80;99.90;;;;;;5031380;28;19921;-64
2023/04/14 04:49:27;;;;;;;;;;;4.80;99.90;;;;;;5025106;28;19928;-64
2023/04/14 04:51:59;;;;;;;;;;;4.80;99.90;;;;;;5014453;28;20400;-64
2023/04/14 04:54:31;;;;;;;;;;;4.80;99.90;;;;;;5015992;28;19921;-64
2023/04/14 04:57:04;;;;;;;;;;;4.80;99.90;;;;;;5031504;28;20392;-64
2023/04/14 04:59:36;;;;;;;;;;;4.70;99.90;;;;;;5039362;28;19971;-64
2023/04/14 05:02:08;;;;;;;;;;;4.70;99.90;;;;;;5042959;28;19974;-65
2023/04/14 05:04:39;;;;;;;;;;;4.80;99.90;;;;;;5042329;28;19929;-65
2023/04/14 05:07:11;;;;;;;;;;;4.80;99.90;;;;;;5031631;28;20389;-64
2023/04/14 05:09:43;;;;;;;;;;;4.80;99.90;;;;;;5036257;28;19929;-64
2023/04/14 05:12:14;;;;;;;;;;;4.80;99.90;;;;;;5016504;28;19924;-64
2023/04/14 05:14:46;;;;;;;;;;;4.80;99.90;;;;;;5015312;28;19933;-64
2023/04/14 05:17:18;;;;;;;;;;;4.80;99.90;;;;;;5032992;28;20443;-64
2023/04/14 05:19:50;;;;;;;;;;;4.80;99.90;;;;;;5029795;28;19920;-64
2023/04/14 05:22:21;;;;;;;;;;;4.80;99.90;;;;;;5037062;28;19982;-64
2023/04/14 05:24:53;;;;;;;;;;;4.80;99.90;;;;;;5037804;28;19925;-64
2023/04/14 05:27:25;;;;;;;;;;;4.80;99.90;;;;;;5041820;28;19921;-64
2023/04/14 05:29:57;;;;;;;;;;;4.80;99.90;;;;;;5031006;28;19925;-64
2023/04/14 05:32:28;;;;;;;;;;;4.80;99.90;;;;;;5022245;28;20286;-64
2023/04/14 05:35:01;;;;;;;;;;;4.80;99.90;;;;;;5034135;28;19975;-64
2023/04/14 05:37:33;;;;;;;;;;;4.90;99.90;;;;;;5030075;28;19921;-64
2023/04/14 05:40:04;;;;;;;;;;;4.90;99.90;;;;;;5015670;28;20039;-64
2023/04/14 05:42:36;;;;;;;;;;;4.90;99.90;;;;;;5030856;28;19932;-64
2023/04/14 05:45:08;;;;;;;;;;;4.90;99.90;;;;;;5045420;28;20290;-64
2023/04/14 05:47:40;;;;;;;;;;;4.90;99.90;;;;;;5041609;28;20324;-64
2023/04/14 05:50:12;;;;;;;;;;;4.90;99.90;;;;;;5040851;28;19921;-64
2023/04/14 05:52:39;;;;;;;;;;;4.90;99.90;;;;;;5038750;28;19932;-64
2023/04/14 05:55:11;;;;;;;;;;;4.90;99.90;;;;;;5036668;28;19928;-64
2023/04/14 05:57:43;;;;;;;;;;;4.90;99.90;;;;;;5034483;28;19983;-64
2023/04/14 06:00:11;;;;;;;;;;;4.90;99.90;;;;;;5029449;28;19983;-64
2023/04/14 06:02:43;;;;;;;;;;;4.90;99.90;;;;;;5029876;28;19991;-64
2023/04/14 06:05:15;;;;;;;;;;;4.90;99.90;;;;;;5030357;28;19921;-64
2023/04/14 06:07:46;;;;;;;;;;;4.90;99.90;;;;;;5037686;28;19924;-64
2023/04/14 06:10:18;;;;;;;;;;;4.90;99.90;;;;;;5030339;28;19928;-64
2023/04/14 06:12:50;;;;;;;;;;;5.00;99.90;;;;;;5040221;28;19947;-64
2023/04/14 06:15:25;;;;;;;;;;;5.10;99.90;;;;;;5025658;28;19928;-64
2023/04/14 06:17:52;;;;;;;;;;;5.00;99.90;;;;;;5044819;28;19952;-64
2023/04/14 06:20:24;;;;;;;;;;;5.00;99.90;;;;;;5045796;28;19974;-64
2023/04/14 06:22:56;;;;;;;;;;;5.00;99.90;;;;;;5032152;28;19979;-64
2023/04/14 06:25:27;;;;;;;;;;;5.10;99.90;;;;;;5041938;28;19921;-64
2023/04/14 06:28:02;;;;;;;;;;;5.10;99.90;;;;;;5038819;28;20373;-64
2023/04/14 06:30:34;;;;;;;;;;;5.20;99.90;;;;;;5030400;28;19975;-64
2023/04/14 06:33:06;;;;;;;;;;;5.20;99.90;;;;;;5039337;28;19967;-64
2023/04/14 06:35:37;;;;;;;;;;;5.20;99.90;;;;;;5041222;28;19959;-64
2023/04/14 06:38:09;;;;;;;;;;;5.30;99.90;;;;;;5027590;28;19971;-64
2023/04/14 06:40:42;;;;;;;;;;;5.30;99.90;;;;;;5033865;28;19929;-64
2023/04/14 06:43:16;;;;;;;;;;;5.30;99.90;;;;;;5042472;28;19921;-63
2023/04/14 06:45:49;;;;;;;;;;;5.30;99.90;;;;;;5033585;28;19925;-64
2023/04/14 06:48:21;;;;;;;;;;;5.40;99.90;;;;;;5034525;28;19924;-64
2023/04/14 06:50:54;;;;;;;;;;;5.40;99.90;;;;;;5036410;28;19927;-64
2023/04/14 06:53:26;;;;;;;;;;;5.40;99.90;;;;;;5017102;28;20446;-64
2023/04/14 06:55:58;;;;;;;;;;;5.40;99.90;;;;;;5022644;28;19929;-64
2023/04/14 06:58:29;;;;;;;;;;;5.50;99.90;;;;;;5033561;28;19924;-64
2023/04/14 07:00:57;;;;;;;;;;;5.50;99.90;;;;;;5040425;28;19924;-64
2023/04/14 07:03:29;;;;;;;;;;;5.60;99.90;;;;;;5039902;28;19925;-64
2023/04/14 07:06:05;;;;;;;;;;;5.60;99.90;;;;;;5037851;28;19921;-64
2023/04/14 07:08:37;;;;;;;;;;;5.70;99.90;;;;;;5040198;28;20327;-64
2023/04/14 07:11:05;;;;;;;;;;;5.70;99.90;;;;;;5052768;28;19920;-64
2023/04/14 07:13:38;;;;;;;;;;;5.70;99.90;;;;;;5034147;28;19921;-64
2023/04/14 07:16:09;;;;;;;;;;;5.70;99.90;;;;;;5048763;28;20369;-64
2023/04/14 07:18:36;;;;;;;;;;;5.70;99.90;;;;;;5009773;28;19931;-64
2023/04/14 07:21:08;;;;;;;;;;;5.80;99.90;;;;;;5042681;28;20274;-64
2023/04/14 07:23:35;;;;;;;;;;;5.90;99.90;;;;;;5042068;28;20479;-64
2023/04/14 07:26:06;;;;;;;;;;;6.00;99.90;;;;;;5031660;28;20351;-65
2023/04/14 07:28:38;;;;;;;;;;;6.10;99.90;;;;;;5032004;28;20360;-64
2023/04/14 07:31:11;;;;;;;;;;;6.10;99.90;;;;;;5038741;28;19987;-67
2023/04/14 07:33:43;;;;;;;;;;;6.20;99.90;;;;;;5018004;28;19974;-64
2023/04/14 07:36:15;;;;;;;;;;;6.30;99.90;;;;;;5048170;28;19932;-64
2023/04/14 07:38:48;;;;;;;;;;;6.40;99.90;;;;;;5032464;28;20455;-64
2023/04/14 07:41:15;;;;;;;;;;;6.40;99.90;;;;;;5045132;28;19971;-64
2023/04/14 07:43:46;;;;;;;;;;;6.50;99.90;;;;;;5043096;28;19947;-64
2023/04/14 07:46:18;;;;;;;;;;;6.50;99.90;;;;;;5040358;28;20015;-64
2023/04/14 07:48:50;;;;;;;;;;;6.60;99.90;;;;;;5046981;28;19924;-64
2023/04/14 07:51:22;;;;;;;;;;;6.60;99.90;;;;;;5030333;28;19928;-64
2023/04/14 07:53:54;;;;;;;;;;;6.60;99.90;;;;;;5034787;28;19952;-64
2023/04/14 07:56:26;;;;;;;;;;;6.60;99.90;;;;;;5017749;28;19976;-64
2023/04/14 07:58:58;;;;;;;;;;;6.60;99.90;;;;;;5040479;28;19927;-64
2023/04/14 08:01:31;;;;;;;;;;;6.50;99.90;;;;;;5036633;28;20019;-64
2023/04/14 08:04:03;;;;;;;;;;;6.60;99.90;;;;;;5025887;28;20301;-64
2023/04/14 08:06:35;;;;;;;;;;;6.60;99.90;;;;;;5023005;28;19921;-64
2023/04/14 08:09:07;;;;;;;;;;;6.60;99.90;;;;;;5031209;28;19929;-64
2023/04/14 08:11:40;;;;;;;;;;;6.70;99.90;;;;;;5039988;28;20285;-64
2023/04/14 08:14:13;;;;;;;;;;;6.70;99.90;;;;;;5033232;28;19921;-64
2023/04/14 08:16:46;;;;;;;;;;;6.80;99.90;;;;;;5033693;28;19927;-64
2023/04/14 08:19:18;;;;;;;;;;;6.90;99.90;;;;;;5030700;28;19993;-64
2023/04/14 08:21:51;;;;;;;;;;;6.90;99.90;;;;;;5039094;28;19929;-64
2023/04/14 08:24:18;;;;;;;;;;;7.00;99.90;;;;;;5029721;28;20300;-64
2023/04/14 08:26:49;;;;;;;;;;;6.90;99.90;;;;;;5029245;28;19967;-64
2023/04/14 08:29:22;;;;;;;;;;;7.00;99.90;;;;;;5042335;28;20160;-64
2023/04/14 08:31:54;;;;;;;;;;;7.00;99.90;;;;;;5045954;28;19921;-64
2023/04/14 08:34:27;;;;;;;;;;;7.10;99.90;;;;;;5050013;28;19956;-64
2023/04/14 08:37:01;;;;;;;;;;;7.20;99.90;;;;;;5033583;28;20012;-64
2023/04/14 08:39:33;;;;;;;;;;;7.30;99.90;;;;;;5028143;28;19929;-64
2023/04/14 08:42:06;;;;;;;;;;;7.30;99.90;;;;;;5043784;28;19925;-64
2023/04/14 08:44:38;;;;;;;;;;;7.40;99.90;;;;;;5041088;28;19948;-64
2023/04/14 08:47:10;;;;;;;;;;;7.40;99.90;;;;;;5039423;28;20364;-68
2023/04/14 08:49:47;;;;;;;;;;;7.40;99.90;;;;;;5030299;28;19925;-66
2023/04/14 08:52:22;;;;;;;;;;;7.50;99.90;;;;;;5045960;28;19920;-68
2023/04/14 08:54:55;;;;;;;;;;;7.50;99.90;;;;;;5048091;28;19924;-65
2023/04/14 08:57:23;;;;;;;;;;;7.50;99.90;;;;;;5032681;28;20406;-68
2023/04/14 09:00:03;;;;;;;;;;;7.40;99.90;;;;;;5032940;28;19983;-67
2023/04/14 09:02:37;;;;;;;;;;;7.40;99.90;;;;;;5052323;28;19925;-68
2023/04/14 09:05:10;;;;;;;;;;;7.50;99.90;;;;;;5033759;28;19921;-64
2023/04/14 09:07:42;;;;;;;;;;;7.50;99.90;;;;;;5033460;28;20304;-64
2023/04/14 09:10:14;;;;;;;;;;;7.60;99.90;;;;;;5021839;28;19925;-64
2023/04/14 09:12:47;;;;;;;;;;;7.50;99.90;;;;;;5029912;28;19921;-67
2023/04/14 09:15:20;;;;;;;;;;;7.60;99.90;;;;;;5039988;28;19921;-65
2023/04/14 09:17:52;;;;;;;;;;;7.60;99.90;;;;;;5041278;28;19929;-64
2023/04/14 09:20:24;;;;;;;;;;;7.60;99.90;;;;;;5031475;28;20316;-64
2023/04/14 09:22:52;;;;;;;;;;;7.60;99.90;;;;;;5029688;28;19920;-64
2023/04/14 09:25:23;;;;;;;;;;;7.60;99.90;;;;;;5030547;28;20443;-64
2023/04/14 09:27:55;;;;;;;;;;;7.70;99.90;;;;;;5045562;28;19966;-63
2023/04/14 09:30:27;;;;;;;;;;;7.70;99.90;;;;;;5030385;28;19920;-64
2023/04/14 09:33:06;;;;;;;;;;;7.80;99.90;;;;;;5045723;28;19928;-65
2023/04/14 09:35:43;;;;;;;;;;;7.80;99.90;;;;;;5044706;28;20359;-65
2023/04/14 09:38:11;;;;;;;;;;;7.80;99.90;;;;;;5045504;28;19929;-64
2023/04/14 09:40:43;;;;;;;;;;;7.90;99.90;;;;;;5044713;28;20324;-65
2023/04/14 09:43:24;;;;;;;;;;;7.90;99.90;;;;;;5046657;28;19921;-65
2023/04/14 09:45:56;;;;;;;;;;;7.90;99.90;;;;;;5040488;28;19986;-64
2023/04/14 09:48:28;;;;;;;;;;;8.00;99.90;;;;;;5040509;28;19925;-65
2023/04/14 09:51:00;;;;;;;;;;;8.10;99.90;;;;;;5045104;28;19943;-64
2023/04/14 09:53:33;;;;;;;;;;;8.10;99.90;;;;;;5044120;28;20388;-64
2023/04/14 09:56:06;;;;;;;;;;;8.10;99.90;;;;;;5044118;28;19974;-64
2023/04/14 09:58:37;;;;;;;;;;;8.20;99.90;;;;;;5043158;28;19921;-64
2023/04/14 10:01:11;;;;;;;;;;;8.20;99.90;;;;;;5014653;28;19925;-64
2023/04/14 10:03:47;;;;;;;;;;;8.20;99.90;;;;;;5027784;28;19947;-65
2023/04/14 10:06:20;;;;;;;;;;;8.30;99.90;;;;;;5029267;28;20673;-66
2023/04/14 10:08:47;;;;;;;;;;;8.40;99.90;;;;;;5031396;28;20389;-64
2023/04/14 10:11:31;;;;;;;;;;;8.40;99.90;;;;;;5044253;28;19967;-64
2023/04/14 10:14:03;;;;;;;;;;;8.50;99.90;;;;;;5048726;28;19982;-64
2023/04/14 10:16:35;;;;;;;;;;;8.50;99.90;;;;;;5031052;28;19920;-64
2023/04/14 10:19:07;;;;;;;;;;;8.50;99.90;;;;;;5044778;28;19925;-64
2023/04/14 10:21:34;;;;;;;;;;;8.60;99.90;;;;;;5046890;28;19924;-64
2023/04/14 10:24:06;;;;;;;;;;;8.60;99.90;;;;;;5028882;28;19920;-64
2023/04/14 10:26:40;;;;;;;;;;;8.60;99.90;;;;;;5027343;28;19928;-64
2023/04/14 10:29:12;;;;;;;;;;;8.70;99.90;;;;;;5044572;28;19925;-64
2023/04/14 10:31:41;;;;;;;;;;;8.70;99.90;;;;;;5047472;28;19927;-64
2023/04/14 10:34:14;;;;;;;;;;;8.70;99.90;;;;;;5045970;28;20069;-64
2023/04/14 10:36:42;;;;;;;;;;;8.80;99.90;;;;;;5046505;28;20003;-64
2023/04/14 10:39:09;;;;;;;;;;;8.90;99.90;;;;;;5034640;28;19925;-65
2023/04/14 10:41:42;;;;;;;;;;;8.90;99.90;;;;;;5042502;28;19932;-64
2023/04/14 10:44:28;;;;;;;;;;;8.90;99.90;;;;;;5015308;28;20392;-65
2023/04/14 10:47:01;;;;;;;;;;;9.00;99.90;;;;;;5044859;28;20137;-65
2023/04/14 10:49:33;;;;;;;;;;;9.30;99.90;;;;;;5035013;28;20454;-64
2023/04/14 10:52:05;;;;;;;;;;;9.50;99.90;;;;;;5046474;28;19921;-64
2023/04/14 10:54:47;;;;;;;;;;;9.70;99.90;;;;;;5044098;28;19920;-64
2023/04/14 10:57:23;;;;;;;;;;;9.60;99.90;;;;;;5033018;28;19928;-64
2023/04/14 10:59:55;;;;;;;;;;;9.50;99.90;;;;;;5039613;28;19921;-64
2023/04/14 11:02:28;;;;;;;;;;;9.50;99.90;;;;;;5032088;28;20332;-64
2023/04/14 11:05:04;;;;;;;;;;;9.60;99.90;;;;;;5039785;28;19995;-65
2023/04/14 11:07:37;;;;;;;;;;;9.60;99.90;;;;;;5034250;28;19990;-64
2023/04/14 11:10:18;;;;;;;;;;;9.70;99.90;;;;;;5044849;28;19986;-64
2023/04/14 11:12:53;;;;;;;;;;;9.80;99.90;;;;;;5044555;28;20471;-65
2023/04/14 11:15:44;;;;;;;;;;;9.80;99.90;;;;;;5045020;28;19928;-64
2023/04/14 11:18:12;;;;;;;;;;;9.90;99.90;;;;;;5025321;28;19921;-65
2023/04/14 11:20:44;;;;;;;;;;;9.90;99.90;;;;;;5040168;28;19920;-64
2023/04/14 11:23:16;;;;;;;;;;;9.90;99.90;;;;;;5043357;28;19921;-64
2023/04/14 11:25:49;;;;;;;;;;;9.80;99.90;;;;;;5036715;28;19921;-64
2023/04/14 11:28:26;;;;;;;;;;;9.80;99.90;;;;;;5044490;28;20348;-64
2023/04/14 11:30:59;;;;;;;;;;;9.80;99.90;;;;;;5042911;28;19920;-64
2023/04/14 11:33:35;;;;;;;;;;;9.80;99.90;;;;;;5030291;28;20415;-64
2023/04/14 11:36:09;;;;;;;;;;;9.70;99.90;;;;;;5043084;28;19920;-64
2023/04/14 11:38:39;;;;;;;;;;;9.60;99.90;;;;;;5044123;28;19921;-64
2023/04/14 11:41:13;;;;;;;;;;;9.50;99.90;;;;;;5044025;28;19987;-64
2023/04/14 11:43:45;;;;;;;;;;;9.40;99.90;;;;;;5049978;28;19975;-64
2023/04/14 11:46:20;;;;;;;;;;;9.40;99.90;;;;;;5049481;28;19929;-65
2023/04/14 11:48:53;;;;;;;;;;;9.40;99.90;;;;;;5036829;28;19925;-64
2023/04/14 11:51:31;;;;;;;;;;;9.40;99.90;;;;;;5044021;28;19921;-64
2023/04/14 11:54:03;;;;;;;;;;;9.50;99.90;;;;;;5029377;28;20019;-64
2023/04/14 11:56:36;;;;;;;;;;;9.80;99.90;;;;;;5045265;28;19920;-64
2023/04/14 11:59:07;;;;;;;;;;;10.00;99.90;;;;;;5042310;28;19921;-65
2023/04/14 12:01:39;;;;;;;;;;;10.10;99.90;;;;;;5044435;28;19924;-64
2023/04/14 12:04:09;;;;;;;;;;;10.30;99.90;;;;;;5031102;28;20395;-65
2023/04/14 12:06:41;;;;;;;;;;;10.30;99.90;;;;;;5031086;28;19931;-65
2023/04/14 12:09:13;;;;;;;;;;;10.40;99.90;;;;;;5044481;28;19946;-65
2023/04/14 12:11:52;;;;;;;;;;;10.40;99.90;;;;;;5040699;28;19921;-64
2023/04/14 12:14:24;;;;;;;;;;;10.60;99.90;;;;;;5040465;28;19920;-64
2023/04/14 12:16:51;;;;;;;;;;;10.70;99.90;;;;;;5046957;28;19925;-65
2023/04/14 12:19:17;;;;;;;;;;;10.90;99.90;;;;;;5046281;28;19925;-64
2023/04/14 12:21:51;;;;;;;;;;;11.00;99.90;;;;;;5045978;28;20347;-64
2023/04/14 12:24:18;;;;;;;;;;;11.20;99.90;;;;;;5046198;28;19931;-65
2023/04/14 12:26:50;;;;;;;;;;;11.30;99.90;;;;;;5044899;28;19925;-64
2023/04/14 12:29:22;;;;;;;;;;;11.40;99.90;;;;;;5033334;28;20393;-65
2023/04/14 12:31:55;;;;;;;;;;;11.40;99.90;;;;;;5034739;28;20389;-64
2023/04/14 12:34:28;;;;;;;;;;;11.30;99.90;;;;;;5036140;28;20400;-64
2023/04/14 12:37:05;;;;;;;;;;;11.30;99.90;;;;;;5049990;28;19921;-65
2023/04/14 12:39:49;;;;;;;;;;;11.50;99.90;;;;;;5031761;28;19921;-64
2023/04/14 12:42:22;;;;;;;;;;;11.60;99.90;;;;;;5044761;28;19932;-67
2023/04/14 12:44:54;;;;;;;;;;;11.70;99.90;;;;;;5044095;28;19924;-65
2023/04/14 12:47:29;;;;;;;;;;;11.80;99.90;;;;;;5046019;28;19966;-64
2023/04/14 12:50:21;;;;;;;;;;;11.80;99.90;;;;;;5045230;28;20328;-65
2023/04/14 12:52:53;;;;;;;;;;;11.80;99.90;;;;;;5042584;28;20351;-64
2023/04/14 12:55:26;;;;;;;;;;;11.80;99.90;;;;;;5038950;28;19921;-64
2023/04/14 12:57:58;;;;;;;;;;;11.70;99.90;;;;;;5032292;28;19967;-65
2023/04/14 13:00:26;;;;;;;;;;;11.80;99.90;;;;;;5035852;28;20416;-65
2023/04/14 13:02:58;;;;;;;;;;;11.90;99.90;;;;;;5031041;28;19991;-64
2023/04/14 13:05:30;;;;;;;;;;;11.90;99.90;;;;;;5032220;28;20340;-64
2023/04/14 13:08:02;;;;;;;;;;;11.90;99.90;;;;;;5027463;28;19928;-64
2023/04/14 13:10:33;;;;;;;;;;;11.70;99.90;;;;;;5039884;28;19925;-64
2023/04/14 13:13:05;;;;;;;;;;;11.60;99.90;;;;;;5039537;28;19921;-64
2023/04/14 13:15:32;;;;;;;;;;;11.50;99.90;;;;;;5047500;28;20331;-64
2023/04/14 13:18:04;;;;;;;;;;;11.30;99.90;;;;;;5040917;28;20340;-64
2023/04/14 13:20:36;;;;;;;;;;;11.20;99.90;;;;;;5048045;28;20019;-64
2023/04/14 13:23:08;;;;;;;;;;;11.20;99.90;;;;;;5033503;28;19987;-64
2023/04/14 13:25:39;;;;;;;;;;;11.20;99.90;;;;;;5041175;28;19978;-64
2023/04/14 13:28:11;;;;;;;;;;;11.10;99.90;;;;;;5025622;28;19929;-64
2023/04/14 13:30:43;;;;;;;;;;;11.10;99.90;;;;;;5043201;28;19928;-67
2023/04/14 13:33:10;;;;;;;;;;;11.20;99.90;;;;;;5045044;28;19924;-64
2023/04/14 13:35:42;;;;;;;;;;;11.30;99.90;;;;;;5029675;28;20344;-64
2023/04/14 13:38:14;;;;;;;;;;;11.40;99.90;;;;;;5042545;28;19924;-65
2023/04/14 13:40:41;;;;;;;;;;;11.50;99.90;;;;;;5042549;28;20361;-64
2023/04/14 13:43:14;;;;;;;;;;;11.50;99.90;;;;;;5044703;28;20339;-64
2023/04/14 13:45:46;;;;;;;;;;;11.60;99.90;;;;;;5052890;28;20319;-65
2023/04/14 13:48:18;;;;;;;;;;;11.60;99.90;;;;;;5041722;28;19925;-64
2023/04/14 13:50:50;;;;;;;;;;;11.60;99.90;;;;;;5018142;28;19994;-64
2023/04/14 13:53:22;;;;;;;;;;;11.70;99.90;;;;;;5046995;28;20396;-64
2023/04/14 13:55:49;;;;;;;;;;;11.60;99.90;;;;;;5049492;28;19927;-64
2023/04/14 13:58:21;;;;;;;;;;;11.50;99.90;;;;;;5018070;28;19957;-64
2023/04/14 14:00:54;;;;;;;;;;;11.30;99.90;;;;;;5032850;28;20277;-64
2023/04/14 14:03:25;;;;;;;;;;;11.30;99.90;;;;;;5048233;28;19971;-64
2023/04/14 14:05:57;;;;;;;;;;;11.10;99.90;;;;;;5034273;28;19970;-64
2023/04/14 14:08:29;;;;;;;;;;;11.00;99.90;;;;;;5011893;28;20383;-65
2023/04/14 14:11:00;;;;;;;;;;;11.00;99.90;;;;;;5035023;28;19950;-64
2023/04/14 14:13:37;;;;;;;;;;;11.00;99.90;;;;;;5046864;28;19931;-64
2023/04/14 14:16:09;;;;;;;;;;;11.00;99.90;;;;;;5048763;28;20294;-65
2023/04/14 14:18:41;;;;;;;;;;;11.00;99.90;;;;;;5034605;28;19929;-65
2023/04/14 14:21:13;;;;;;;;;;;11.00;99.90;;;;;;5051377;28;20423;-64
2023/04/14 14:23:44;;;;;;;;;;;11.10;99.90;;;;;;5033739;28;19924;-64
2023/04/14 14:26:16;;;;;;;;;;;11.20;99.90;;;;;;5047526;28;19952;-64
2023/04/14 14:28:48;;;;;;;;;;;11.30;99.90;;;;;;5030389;28;19921;-64
2023/04/14 14:31:19;;;;;;;;;;;11.40;99.90;;;;;;5025147;28;19928;-65
2023/04/14 14:33:51;;;;;;;;;;;11.40;99.90;;;;;;5047486;28;19967;-65
2023/04/14 14:36:23;;;;;;;;;;;11.40;99.90;;;;;;5051534;28;19929;-65
2023/04/14 14:38:54;;;;;;;;;;;11.30;99.90;;;;;;5047494;28;19925;-64
2023/04/14 14:41:26;;;;;;;;;;;11.40;99.90;;;;;;5033841;28;19978;-65
2023/04/14 14:43:53;;;;;;;;;;;11.50;99.90;;;;;;5052012;28;19929;-64
2023/04/14 14:46:25;;;;;;;;;;;11.50;99.90;;;;;;5048059;28;19928;-65
2023/04/14 14:48:57;;;;;;;;;;;11.50;99.90;;;;;;5042806;28;20361;-64
2023/04/14 14:51:28;;;;;;;;;;;11.50;99.90;;;;;;5026952;28;19924;-64
2023/04/14 14:54:00;;;;;;;;;;;11.50;99.90;;;;;;5029496;28;19920;-64
2023/04/14 14:56:32;;;;;;;;;;;11.70;99.90;;;;;;5041486;28;20014;-64
2023/04/14 14:59:03;;;;;;;;;;;12.10;99.90;;;;;;5032627;28;19920;-65